This is the latest recevied weather packets stored in our database for station/object KC5AV. If no packets are shown the sender has not sent any weather packets the latest 1 day(s).
| Time | Temp. | Humidity | Pressure | Rain* | Wind** | Luminosity | Snow |
|---|---|---|---|---|---|---|---|
| 1777987618 | 21.11° C | 86% | 1008.7 hPa | 0 mm | 0.45 m/s, 139° | 38 W/m² | - |
| 1777987316 | 21.11° C | 86% | 1008.5 hPa | 0 mm | 1.34 m/s, 169° | 30 W/m² | - |
| 1777987013 | 21.11° C | 86% | 1008.5 hPa | 0 mm | 0.45 m/s, 170° | 39 W/m² | - |
| 1777986711 | 21.11° C | 86% | 1008.3 hPa | 0 mm | 0.45 m/s, 166° | 34 W/m² | - |
| 1777986409 | 21.11° C | 86% | 1008.6 hPa | 0 mm | 0.89 m/s, 188° | 24 W/m² | - |
| 1777986107 | 21.11° C | 86% | 1008.5 hPa | 0 mm | 0.89 m/s, 189° | 21 W/m² | - |
| 1777985803 | 21.11° C | 86% | 1008.5 hPa | 0 mm | 1.34 m/s, 285° | 21 W/m² | - |
| 1777985500 | 21.11° C | 86% | 1008.5 hPa | 0 mm | 0.45 m/s, 79° | 22 W/m² | - |
| 1777985197 | 21.11° C | 86% | 1008.4 hPa | 0 mm | 0.45 m/s, 25° | 21 W/m² | - |
| 1777984893 | 21.11° C | 86% | 1008.2 hPa | 0 mm | 0.45 m/s, 6° | 18 W/m² | - |
| 1777984589 | 21.11° C | 86% | 1008.2 hPa | 0 mm | 0.45 m/s, 115° | 18 W/m² | - |
| 1777984286 | 21.11° C | 86% | 1008.4 hPa | 0 mm | 0.89 m/s, 44° | 13 W/m² | - |
| 1777983983 | 20.56° C | 86% | 1008.1 hPa | 0 mm | 0.45 m/s, 43° | 12 W/m² | - |
| 1777983680 | 20.56° C | 86% | 1008.3 hPa | 0 mm | 0.89 m/s, 10° | 10 W/m² | - |
| 1777983376 | 20.56° C | 87% | 1008.2 hPa | 0 mm | 1.34 m/s, 319° | 12 W/m² | - |
| 1777983073 | 20.56° C | 87% | 1008.3 hPa | 0 mm | 0.45 m/s, 341° | 8 W/m² | - |
| 1777982769 | 20.56° C | 87% | 1008.2 hPa | 0 mm | 0 m/s | 8 W/m² | - |
| 1777982466 | 20.56° C | 87% | 1008.3 hPa | 0 mm | 0 m/s | 5 W/m² | - |
| 1777982160 | 20° C | 87% | 1008.1 hPa | 0 mm | 0.89 m/s, 146° | 5 W/m² | - |
| 1777981857 | 20° C | 87% | 1008.2 hPa | 0 mm | 0.45 m/s, 89° | 5 W/m² | - |
| 1777981554 | 20° C | 87% | 1008.1 hPa | 0 mm | 0.89 m/s, 236° | 3 W/m² | - |
| 1777981251 | 20° C | 87% | 1008 hPa | 0 mm | 0 m/s | 2 W/m² | - |
| 1777980947 | 20° C | 87% | 1008 hPa | 0 mm | 0.89 m/s, 125° | 1 W/m² | - |
| 1777980644 | 20° C | 87% | 1008.1 hPa | 0 mm | 0 m/s | 0 W/m² | - |
| 1777980340 | 20° C | 87% | 1008 hPa | 0 mm | 1.34 m/s, 98° | 0 W/m² | - |
* Rain latest hour (hover to see other rain measurements)
** Current wind speed in m/s (hover to see current wind gust speed)